sensor_id;sensor_type;location;lat;lon;timestamp;temperature;humidity
216;HTU21D;45701;48.81287245;9.14186865;2022-10-16T00:00:45;16.51;88.76
216;HTU21D;45701;48.81287245;9.14186865;2022-10-16T00:03:11;16.45;89.41
216;HTU21D;45701;48.81287245;9.14186865;2022-10-16T00:05:41;16.27;90.22
216;HTU21D;45701;48.81287245;9.14186865;2022-10-16T00:08:09;16.34;90.43
216;HTU21D;45701;48.81287245;9.14186865;2022-10-16T00:10:36;16.28;90.54
216;HTU21D;45701;48.81287245;9.14186865;2022-10-16T00:13:03;16.25;90.68
216;HTU21D;45701;48.81287245;9.14186865;2022-10-16T00:15:30;16.11;91.14
216;HTU21D;45701;48.81287245;9.14186865;2022-10-16T00:17:58;16.24;90.34
216;HTU21D;45701;48.81287245;9.14186865;2022-10-16T00:20:25;16.25;89.89
216;HTU21D;45701;48.81287245;9.14186865;2022-10-16T00:23:12;16.41;89.44
216;HTU21D;45701;48.81287245;9.14186865;2022-10-16T00:25:39;16.14;89.81
216;HTU21D;45701;48.81287245;9.14186865;2022-10-16T00:28:05;16.12;90.51
216;HTU21D;45701;48.81287245;9.14186865;2022-10-16T00:30:32;16.17;90.60
216;HTU21D;45701;48.81287245;9.14186865;2022-10-16T00:32:59;16.14;90.51
216;HTU21D;45701;48.81287245;9.14186865;2022-10-16T00:35:25;16.13;90.42
216;HTU21D;45701;48.81287245;9.14186865;2022-10-16T00:37:53;16.13;90.73
216;HTU21D;45701;48.81287245;9.14186865;2022-10-16T00:40:21;16.08;90.34
216;HTU21D;45701;48.81287245;9.14186865;2022-10-16T00:42:47;15.82;91.80
216;HTU21D;45701;48.81287245;9.14186865;2022-10-16T00:45:14;15.92;91.40
216;HTU21D;45701;48.81287245;9.14186865;2022-10-16T00:47:43;15.76;91.61
216;HTU21D;45701;48.81287245;9.14186865;2022-10-16T00:50:18;16.06;89.92
216;HTU21D;45701;48.81287245;9.14186865;2022-10-16T00:52:48;16.06;89.55
216;HTU21D;45701;48.81287245;9.14186865;2022-10-16T00:55:16;16.03;90.27
216;HTU21D;45701;48.81287245;9.14186865;2022-10-16T00:57:45;16.00;90.96
216;HTU21D;45701;48.81287245;9.14186865;2022-10-16T01:00:15;15.96;91.02
216;HTU21D;45701;48.81287245;9.14186865;2022-10-16T01:02:42;15.90;91.52
216;HTU21D;45701;48.81287245;9.14186865;2022-10-16T01:05:09;15.76;91.93
216;HTU21D;45701;48.81287245;9.14186865;2022-10-16T01:07:41;15.92;91.95
216;HTU21D;45701;48.81287245;9.14186865;2022-10-16T01:10:17;16.11;90.80
216;HTU21D;45701;48.81287245;9.14186865;2022-10-16T01:12:52;16.19;89.60
216;HTU21D;45701;48.81287245;9.14186865;2022-10-16T01:15:25;16.20;90.29
216;HTU21D;45701;48.81287245;9.14186865;2022-10-16T01:17:58;16.04;90.92
216;HTU21D;45701;48.81287245;9.14186865;2022-10-16T01:20:29;15.88;92.20
216;HTU21D;45701;48.81287245;9.14186865;2022-10-16T01:23:04;16.10;90.66
216;HTU21D;45701;48.81287245;9.14186865;2022-10-16T01:28:34;16.29;89.77
216;HTU21D;45701;48.81287245;9.14186865;2022-10-16T01:31:04;16.19;89.57
216;HTU21D;45701;48.81287245;9.14186865;2022-10-16T01:33:35;16.16;89.53
216;HTU21D;45701;48.81287245;9.14186865;2022-10-16T01:36:09;16.21;89.14
216;HTU21D;45701;48.81287245;9.14186865;2022-10-16T01:38:38;16.26;88.44
216;HTU21D;45701;48.81287245;9.14186865;2022-10-16T01:41:09;16.12;89.32
216;HTU21D;45701;48.81287245;9.14186865;2022-10-16T01:43:40;16.15;90.55
216;HTU21D;45701;48.81287245;9.14186865;2022-10-16T01:46:10;16.07;90.50
216;HTU21D;45701;48.81287245;9.14186865;2022-10-16T01:48:37;15.97;91.45
216;HTU21D;45701;48.81287245;9.14186865;2022-10-16T01:51:07;16.10;89.83
216;HTU21D;45701;48.81287245;9.14186865;2022-10-16T01:53:36;16.26;88.59
216;HTU21D;45701;48.81287245;9.14186865;2022-10-16T01:56:05;16.21;88.92
216;HTU21D;45701;48.81287245;9.14186865;2022-10-16T01:58:35;16.22;88.61
216;HTU21D;45701;48.81287245;9.14186865;2022-10-16T02:01:07;16.17;89.28
216;HTU21D;45701;48.81287245;9.14186865;2022-10-16T02:03:37;16.02;89.34
216;HTU21D;45701;48.81287245;9.14186865;2022-10-16T02:06:06;16.00;90.76
216;HTU21D;45701;48.81287245;9.14186865;2022-10-16T02:08:33;16.07;91.37
216;HTU21D;45701;48.81287245;9.14186865;2022-10-16T02:11:00;16.35;88.90
216;HTU21D;45701;48.81287245;9.14186865;2022-10-16T02:13:30;16.34;88.54
216;HTU21D;45701;48.81287245;9.14186865;2022-10-16T02:15:58;16.25;89.26
216;HTU21D;45701;48.81287245;9.14186865;2022-10-16T02:18:27;16.30;88.84
216;HTU21D;45701;48.81287245;9.14186865;2022-10-16T02:20:59;16.32;88.97
216;HTU21D;45701;48.81287245;9.14186865;2022-10-16T02:23:31;16.01;90.75
216;HTU21D;45701;48.81287245;9.14186865;2022-10-16T02:26:03;16.24;89.85
216;HTU21D;45701;48.81287245;9.14186865;2022-10-16T02:28:36;16.32;88.96
216;HTU21D;45701;48.81287245;9.14186865;2022-10-16T02:31:06;16.27;88.96
216;HTU21D;45701;48.81287245;9.14186865;2022-10-16T02:33:37;16.29;88.96
216;HTU21D;45701;48.81287245;9.14186865;2022-10-16T02:36:08;16.36;88.61
216;HTU21D;45701;48.81287245;9.14186865;2022-10-16T02:38:35;16.43;88.25
216;HTU21D;45701;48.81287245;9.14186865;2022-10-16T02:41:03;16.37;88.28
216;HTU21D;45701;48.81287245;9.14186865;2022-10-16T02:43:30;16.33;88.89
216;HTU21D;45701;48.81287245;9.14186865;2022-10-16T02:45:58;16.12;89.78
216;HTU21D;45701;48.81287245;9.14186865;2022-10-16T02:48:25;15.99;90.75
216;HTU21D;45701;48.81287245;9.14186865;2022-10-16T02:50:53;16.24;89.70
216;HTU21D;45701;48.81287245;9.14186865;2022-10-16T02:53:20;16.21;88.90
216;HTU21D;45701;48.81287245;9.14186865;2022-10-16T02:55:46;16.34;88.38
216;HTU21D;45701;48.81287245;9.14186865;2022-10-16T02:58:13;16.18;89.33
216;HTU21D;45701;48.81287245;9.14186865;2022-10-16T03:00:40;16.20;89.86
216;HTU21D;45701;48.81287245;9.14186865;2022-10-16T03:03:07;16.22;90.08
216;HTU21D;45701;48.81287245;9.14186865;2022-10-16T03:05:34;16.29;89.89
216;HTU21D;45701;48.81287245;9.14186865;2022-10-16T03:08:02;16.41;88.90
216;HTU21D;45701;48.81287245;9.14186865;2022-10-16T03:10:28;16.48;87.83
216;HTU21D;45701;48.81287245;9.14186865;2022-10-16T03:12:55;16.25;89.02
216;HTU21D;45701;48.81287245;9.14186865;2022-10-16T03:15:22;16.20;88.75
216;HTU21D;45701;48.81287245;9.14186865;2022-10-16T03:17:48;16.26;88.47
216;HTU21D;45701;48.81287245;9.14186865;2022-10-16T03:20:15;16.29;88.57
216;HTU21D;45701;48.81287245;9.14186865;2022-10-16T03:22:42;16.03;90.41
216;HTU21D;45701;48.81287245;9.14186865;2022-10-16T03:25:10;16.18;89.34
216;HTU21D;45701;48.81287245;9.14186865;2022-10-16T03:27:36;16.03;89.50
216;HTU21D;45701;48.81287245;9.14186865;2022-10-16T03:30:04;15.95;90.11
216;HTU21D;45701;48.81287245;9.14186865;2022-10-16T03:32:31;15.97;90.17
216;HTU21D;45701;48.81287245;9.14186865;2022-10-16T03:34:58;16.00;90.52
216;HTU21D;45701;48.81287245;9.14186865;2022-10-16T03:37:24;16.11;88.86
216;HTU21D;45701;48.81287245;9.14186865;2022-10-16T03:39:51;15.89;91.18
216;HTU21D;45701;48.81287245;9.14186865;2022-10-16T03:42:19;16.18;89.78
216;HTU21D;45701;48.81287245;9.14186865;2022-10-16T03:44:46;16.02;90.51
216;HTU21D;45701;48.81287245;9.14186865;2022-10-16T03:47:13;16.06;90.80
216;HTU21D;45701;48.81287245;9.14186865;2022-10-16T03:49:39;16.12;90.25
216;HTU21D;45701;48.81287245;9.14186865;2022-10-16T03:52:06;15.99;90.73
216;HTU21D;45701;48.81287245;9.14186865;2022-10-16T03:54:33;16.15;89.83
216;HTU21D;45701;48.81287245;9.14186865;2022-10-16T03:56:59;16.14;89.89
216;HTU21D;45701;48.81287245;9.14186865;2022-10-16T03:59:27;16.05;90.88
216;HTU21D;45701;48.81287245;9.14186865;2022-10-16T04:01:54;15.99;90.94
216;HTU21D;45701;48.81287245;9.14186865;2022-10-16T04:04:21;16.14;90.34
216;HTU21D;45701;48.81287245;9.14186865;2022-10-16T04:06:47;15.95;90.91
216;HTU21D;45701;48.81287245;9.14186865;2022-10-16T04:09:14;15.85;91.60
216;HTU21D;45701;48.81287245;9.14186865;2022-10-16T04:11:41;15.73;91.96
216;HTU21D;45701;48.81287245;9.14186865;2022-10-16T04:14:07;15.66;92.13
216;HTU21D;45701;48.81287245;9.14186865;2022-10-16T04:16:35;15.71;91.93
216;HTU21D;45701;48.81287245;9.14186865;2022-10-16T04:19:02;15.88;91.19
216;HTU21D;45701;48.81287245;9.14186865;2022-10-16T04:21:29;15.95;90.77
216;HTU21D;45701;48.81287245;9.14186865;2022-10-16T04:23:56;15.81;90.47
216;HTU21D;45701;48.81287245;9.14186865;2022-10-16T04:26:22;15.97;89.50
216;HTU21D;45701;48.81287245;9.14186865;2022-10-16T04:28:49;16.03;88.64
216;HTU21D;45701;48.81287245;9.14186865;2022-10-16T04:31:16;16.08;88.60
216;HTU21D;45701;48.81287245;9.14186865;2022-10-16T04:33:44;16.04;88.59
216;HTU21D;45701;48.81287245;9.14186865;2022-10-16T04:36:11;16.03;88.90
216;HTU21D;45701;48.81287245;9.14186865;2022-10-16T04:38:38;16.13;88.32
216;HTU21D;45701;48.81287245;9.14186865;2022-10-16T04:41:05;16.10;88.93
216;HTU21D;45701;48.81287245;9.14186865;2022-10-16T04:43:32;16.03;89.23
216;HTU21D;45701;48.81287245;9.14186865;2022-10-16T04:45:59;16.02;88.89
216;HTU21D;45701;48.81287245;9.14186865;2022-10-16T04:48:27;15.82;90.22
216;HTU21D;45701;48.81287245;9.14186865;2022-10-16T04:50:55;15.65;91.87
216;HTU21D;45701;48.81287245;9.14186865;2022-10-16T04:53:22;15.73;92.38
216;HTU21D;45701;48.81287245;9.14186865;2022-10-16T04:55:49;15.81;92.39
216;HTU21D;45701;48.81287245;9.14186865;2022-10-16T04:58:15;15.88;91.91
216;HTU21D;45701;48.81287245;9.14186865;2022-10-16T05:00:42;15.93;91.12
216;HTU21D;45701;48.81287245;9.14186865;2022-10-16T05:03:10;15.81;91.82
216;HTU21D;45701;48.81287245;9.14186865;2022-10-16T05:05:36;15.97;91.14
216;HTU21D;45701;48.81287245;9.14186865;2022-10-16T05:08:04;15.83;91.84
216;HTU21D;45701;48.81287245;9.14186865;2022-10-16T05:10:31;15.89;91.44
216;HTU21D;45701;48.81287245;9.14186865;2022-10-16T05:12:58;15.89;91.27
216;HTU21D;45701;48.81287245;9.14186865;2022-10-16T05:15:24;15.85;91.82
216;HTU21D;45701;48.81287245;9.14186865;2022-10-16T05:17:55;15.97;91.28
216;HTU21D;45701;48.81287245;9.14186865;2022-10-16T05:20:22;16.02;91.26
216;HTU21D;45701;48.81287245;9.14186865;2022-10-16T05:22:49;15.77;91.98
216;HTU21D;45701;48.81287245;9.14186865;2022-10-16T05:25:17;15.68;92.37
216;HTU21D;45701;48.81287245;9.14186865;2022-10-16T05:27:47;15.75;92.71
216;HTU21D;45701;48.81287245;9.14186865;2022-10-16T05:30:14;15.70;93.12
216;HTU21D;45701;48.81287245;9.14186865;2022-10-16T05:32:41;15.90;91.89
216;HTU21D;45701;48.81287245;9.14186865;2022-10-16T05:35:08;15.91;90.99
216;HTU21D;45701;48.81287245;9.14186865;2022-10-16T05:37:35;15.81;91.68
216;HTU21D;45701;48.81287245;9.14186865;2022-10-16T05:40:02;15.78;91.82
216;HTU21D;45701;48.81287245;9.14186865;2022-10-16T05:42:30;15.85;91.28
216;HTU21D;45701;48.81287245;9.14186865;2022-10-16T05:44:57;15.62;92.31
216;HTU21D;45701;48.81287245;9.14186865;2022-10-16T05:47:24;15.88;91.02
216;HTU21D;45701;48.81287245;9.14186865;2022-10-16T05:49:50;16.02;90.07
216;HTU21D;45701;48.81287245;9.14186865;2022-10-16T05:52:17;15.74;91.35
216;HTU21D;45701;48.81287245;9.14186865;2022-10-16T05:54:44;15.87;91.26
216;HTU21D;45701;48.81287245;9.14186865;2022-10-16T05:57:10;15.72;92.05
216;HTU21D;45701;48.81287245;9.14186865;2022-10-16T05:59:38;15.76;92.40
216;HTU21D;45701;48.81287245;9.14186865;2022-10-16T06:02:05;15.59;93.04
216;HTU21D;45701;48.81287245;9.14186865;2022-10-16T06:04:32;15.55;93.97
216;HTU21D;45701;48.81287245;9.14186865;2022-10-16T06:06:58;15.61;93.69
216;HTU21D;45701;48.81287245;9.14186865;2022-10-16T06:09:26;15.61;93.33
216;HTU21D;45701;48.81287245;9.14186865;2022-10-16T06:11:53;15.75;92.27
216;HTU21D;45701;48.81287245;9.14186865;2022-10-16T06:14:20;15.90;91.50
216;HTU21D;45701;48.81287245;9.14186865;2022-10-16T06:16:48;15.92;90.72
216;HTU21D;45701;48.81287245;9.14186865;2022-10-16T06:19:15;15.87;91.74
216;HTU21D;45701;48.81287245;9.14186865;2022-10-16T06:21:43;15.84;91.47
216;HTU21D;45701;48.81287245;9.14186865;2022-10-16T06:24:10;15.80;91.87
216;HTU21D;45701;48.81287245;9.14186865;2022-10-16T06:26:37;15.61;93.40
216;HTU21D;45701;48.81287245;9.14186865;2022-10-16T06:29:04;15.62;93.29
216;HTU21D;45701;48.81287245;9.14186865;2022-10-16T06:31:31;15.72;92.88
216;HTU21D;45701;48.81287245;9.14186865;2022-10-16T06:34:00;15.69;93.69
216;HTU21D;45701;48.81287245;9.14186865;2022-10-16T06:36:27;15.73;93.88
216;HTU21D;45701;48.81287245;9.14186865;2022-10-16T06:38:54;15.83;93.23
216;HTU21D;45701;48.81287245;9.14186865;2022-10-16T06:41:22;16.06;91.31
216;HTU21D;45701;48.81287245;9.14186865;2022-10-16T06:43:49;15.89;92.34
216;HTU21D;45701;48.81287245;9.14186865;2022-10-16T06:46:18;15.80;93.28
216;HTU21D;45701;48.81287245;9.14186865;2022-10-16T06:48:45;15.82;93.24
216;HTU21D;45701;48.81287245;9.14186865;2022-10-16T06:51:15;15.74;93.85
216;HTU21D;45701;48.81287245;9.14186865;2022-10-16T06:53:43;15.85;93.53
216;HTU21D;45701;48.81287245;9.14186865;2022-10-16T06:56:12;15.92;93.69
216;HTU21D;45701;48.81287245;9.14186865;2022-10-16T06:58:40;16.08;92.43
216;HTU21D;45701;48.81287245;9.14186865;2022-10-16T07:01:07;16.10;92.22
216;HTU21D;45701;48.81287245;9.14186865;2022-10-16T07:03:36;16.17;92.06
216;HTU21D;45701;48.81287245;9.14186865;2022-10-16T07:06:05;16.32;91.46
216;HTU21D;45701;48.81287245;9.14186865;2022-10-16T07:08:34;16.52;90.59
216;HTU21D;45701;48.81287245;9.14186865;2022-10-16T07:11:03;16.34;91.24
216;HTU21D;45701;48.81287245;9.14186865;2022-10-16T07:13:30;16.43;91.40
216;HTU21D;45701;48.81287245;9.14186865;2022-10-16T07:15:56;16.52;91.15
216;HTU21D;45701;48.81287245;9.14186865;2022-10-16T07:18:23;16.44;91.69
216;HTU21D;45701;48.81287245;9.14186865;2022-10-16T07:20:52;16.60;90.76
216;HTU21D;45701;48.81287245;9.14186865;2022-10-16T07:23:19;16.40;90.92
216;HTU21D;45701;48.81287245;9.14186865;2022-10-16T07:25:53;16.49;91.76
216;HTU21D;45701;48.81287245;9.14186865;2022-10-16T07:28:20;16.47;91.60
216;HTU21D;45701;48.81287245;9.14186865;2022-10-16T07:30:46;16.45;92.00
216;HTU21D;45701;48.81287245;9.14186865;2022-10-16T07:33:13;16.45;91.83
216;HTU21D;45701;48.81287245;9.14186865;2022-10-16T07:35:48;16.49;91.87
216;HTU21D;45701;48.81287245;9.14186865;2022-10-16T07:38:14;16.60;91.11
216;HTU21D;45701;48.81287245;9.14186865;2022-10-16T07:40:41;16.77;88.89
216;HTU21D;45701;48.81287245;9.14186865;2022-10-16T07:43:09;16.72;89.29
216;HTU21D;45701;48.81287245;9.14186865;2022-10-16T07:45:36;16.60;89.86
216;HTU21D;45701;48.81287245;9.14186865;2022-10-16T07:48:03;16.60;90.24
216;HTU21D;45701;48.81287245;9.14186865;2022-10-16T07:50:30;16.64;90.57
216;HTU21D;45701;48.81287245;9.14186865;2022-10-16T07:52:56;16.60;91.89
216;HTU21D;45701;48.81287245;9.14186865;2022-10-16T07:55:23;16.65;91.71
216;HTU21D;45701;48.81287245;9.14186865;2022-10-16T07:57:50;16.73;90.44
216;HTU21D;45701;48.81287245;9.14186865;2022-10-16T08:00:18;16.70;90.23
216;HTU21D;45701;48.81287245;9.14186865;2022-10-16T08:02:45;16.76;89.83
216;HTU21D;45701;48.81287245;9.14186865;2022-10-16T08:05:12;16.74;88.79
216;HTU21D;45701;48.81287245;9.14186865;2022-10-16T08:07:39;16.78;88.01
216;HTU21D;45701;48.81287245;9.14186865;2022-10-16T08:10:06;16.87;87.20
216;HTU21D;45701;48.81287245;9.14186865;2022-10-16T08:12:33;17.14;86.88
216;HTU21D;45701;48.81287245;9.14186865;2022-10-16T08:14:59;17.39;84.53
216;HTU21D;45701;48.81287245;9.14186865;2022-10-16T08:17:27;17.59;82.13
216;HTU21D;45701;48.81287245;9.14186865;2022-10-16T08:19:54;17.48;81.52
216;HTU21D;45701;48.81287245;9.14186865;2022-10-16T08:22:21;17.52;82.53
216;HTU21D;45701;48.81287245;9.14186865;2022-10-16T08:24:47;17.55;82.57
216;HTU21D;45701;48.81287245;9.14186865;2022-10-16T08:27:14;17.64;82.17
216;HTU21D;45701;48.81287245;9.14186865;2022-10-16T08:29:41;17.65;82.02
216;HTU21D;45701;48.81287245;9.14186865;2022-10-16T08:32:07;17.70;81.43
216;HTU21D;45701;48.81287245;9.14186865;2022-10-16T08:34:35;17.80;79.87
216;HTU21D;45701;48.81287245;9.14186865;2022-10-16T08:37:02;17.70;80.83
216;HTU21D;45701;48.81287245;9.14186865;2022-10-16T08:39:29;17.69;82.49
216;HTU21D;45701;48.81287245;9.14186865;2022-10-16T08:42:19;17.82;80.62
216;HTU21D;45701;48.81287245;9.14186865;2022-10-16T08:45:13;17.77;79.01
216;HTU21D;45701;48.81287245;9.14186865;2022-10-16T08:47:49;17.85;80.20
216;HTU21D;45701;48.81287245;9.14186865;2022-10-16T08:50:25;17.87;81.00
216;HTU21D;45701;48.81287245;9.14186865;2022-10-16T08:52:53;17.84;83.73
216;HTU21D;45701;48.81287245;9.14186865;2022-10-16T08:55:33;18.14;80.44
216;HTU21D;45701;48.81287245;9.14186865;2022-10-16T08:58:00;18.13;79.89
216;HTU21D;45701;48.81287245;9.14186865;2022-10-16T09:00:28;17.88;80.20
216;HTU21D;45701;48.81287245;9.14186865;2022-10-16T09:03:03;18.11;81.83
216;HTU21D;45701;48.81287245;9.14186865;2022-10-16T09:05:51;18.11;82.24
216;HTU21D;45701;48.81287245;9.14186865;2022-10-16T09:08:27;18.04;82.23
216;HTU21D;45701;48.81287245;9.14186865;2022-10-16T09:10:58;18.11;79.88
216;HTU21D;45701;48.81287245;9.14186865;2022-10-16T09:13:29;18.23;78.69
216;HTU21D;45701;48.81287245;9.14186865;2022-10-16T09:16:04;18.25;78.17
216;HTU21D;45701;48.81287245;9.14186865;2022-10-16T09:18:42;18.27;79.33
216;HTU21D;45701;48.81287245;9.14186865;2022-10-16T09:21:17;18.44;79.27
216;HTU21D;45701;48.81287245;9.14186865;2022-10-16T09:23:45;18.29;77.68
216;HTU21D;45701;48.81287245;9.14186865;2022-10-16T09:26:14;18.41;76.28
216;HTU21D;45701;48.81287245;9.14186865;2022-10-16T09:28:41;18.39;77.12
216;HTU21D;45701;48.81287245;9.14186865;2022-10-16T09:31:15;18.30;77.29
216;HTU21D;45701;48.81287245;9.14186865;2022-10-16T09:33:43;18.28;75.22
216;HTU21D;45701;48.81287245;9.14186865;2022-10-16T09:36:14;18.49;75.44
216;HTU21D;45701;48.81287245;9.14186865;2022-10-16T09:38:41;18.49;77.17
216;HTU21D;45701;48.81287245;9.14186865;2022-10-16T09:41:15;18.47;77.63
216;HTU21D;45701;48.81287245;9.14186865;2022-10-16T09:43:48;18.50;75.88
216;HTU21D;45701;48.81287245;9.14186865;2022-10-16T09:46:25;18.77;75.01
216;HTU21D;45701;48.81287245;9.14186865;2022-10-16T09:48:55;18.64;75.75
216;HTU21D;45701;48.81287245;9.14186865;2022-10-16T09:51:26;18.63;77.47
216;HTU21D;45701;48.81287245;9.14186865;2022-10-16T09:53:58;18.70;77.67
216;HTU21D;45701;48.81287245;9.14186865;2022-10-16T09:56:27;18.58;79.29
216;HTU21D;45701;48.81287245;9.14186865;2022-10-16T09:58:56;18.83;77.36
216;HTU21D;45701;48.81287245;9.14186865;2022-10-16T10:01:28;18.93;77.19
216;HTU21D;45701;48.81287245;9.14186865;2022-10-16T10:03:57;18.97;76.15
216;HTU21D;45701;48.81287245;9.14186865;2022-10-16T10:06:29;19.02;74.63
216;HTU21D;45701;48.81287245;9.14186865;2022-10-16T10:09:05;18.78;77.66
216;HTU21D;45701;48.81287245;9.14186865;2022-10-16T10:14:27;19.00;77.18
216;HTU21D;45701;48.81287245;9.14186865;2022-10-16T10:17:11;19.12;77.06
216;HTU21D;45701;48.81287245;9.14186865;2022-10-16T10:19:39;19.15;76.52
216;HTU21D;45701;48.81287245;9.14186865;2022-10-16T10:22:17;19.28;74.94
216;HTU21D;45701;48.81287245;9.14186865;2022-10-16T10:24:44;19.27;75.88
216;HTU21D;45701;48.81287245;9.14186865;2022-10-16T10:27:15;19.45;73.48
216;HTU21D;45701;48.81287245;9.14186865;2022-10-16T10:29:53;19.70;71.74
216;HTU21D;45701;48.81287245;9.14186865;2022-10-16T10:32:29;19.74;71.91
216;HTU21D;45701;48.81287245;9.14186865;2022-10-16T10:35:11;19.75;70.89
216;HTU21D;45701;48.81287245;9.14186865;2022-10-16T10:37:54;19.73;70.90
216;HTU21D;45701;48.81287245;9.14186865;2022-10-16T10:40:31;19.90;71.03
216;HTU21D;45701;48.81287245;9.14186865;2022-10-16T10:43:04;19.76;70.96
216;HTU21D;45701;48.81287245;9.14186865;2022-10-16T10:45:41;19.82;73.02
216;HTU21D;45701;48.81287245;9.14186865;2022-10-16T10:48:21;19.92;69.38
216;HTU21D;45701;48.81287245;9.14186865;2022-10-16T10:50:54;19.97;71.18
216;HTU21D;45701;48.81287245;9.14186865;2022-10-16T10:53:35;20.03;71.57
216;HTU21D;45701;48.81287245;9.14186865;2022-10-16T10:56:11;20.01;70.22
216;HTU21D;45701;48.81287245;9.14186865;2022-10-16T10:58:57;20.03;69.61
216;HTU21D;45701;48.81287245;9.14186865;2022-10-16T11:01:32;20.05;69.36
216;HTU21D;45701;48.81287245;9.14186865;2022-10-16T11:04:22;19.90;68.71
216;HTU21D;45701;48.81287245;9.14186865;2022-10-16T11:06:55;19.95;66.53
216;HTU21D;45701;48.81287245;9.14186865;2022-10-16T11:09:26;20.00;70.06
216;HTU21D;45701;48.81287245;9.14186865;2022-10-16T11:11:57;19.98;69.56
216;HTU21D;45701;48.81287245;9.14186865;2022-10-16T11:14:30;19.95;70.00
216;HTU21D;45701;48.81287245;9.14186865;2022-10-16T11:17:05;20.17;70.58
216;HTU21D;45701;48.81287245;9.14186865;2022-10-16T11:19:39;20.35;67.10
216;HTU21D;45701;48.81287245;9.14186865;2022-10-16T11:22:11;20.45;65.14
216;HTU21D;45701;48.81287245;9.14186865;2022-10-16T11:24:46;20.71;66.60
216;HTU21D;45701;48.81287245;9.14186865;2022-10-16T11:27:17;20.69;64.53
216;HTU21D;45701;48.81287245;9.14186865;2022-10-16T11:29:52;20.64;65.01
216;HTU21D;45701;48.81287245;9.14186865;2022-10-16T11:32:22;20.73;68.56
216;HTU21D;45701;48.81287245;9.14186865;2022-10-16T11:34:52;20.81;69.20
216;HTU21D;45701;48.81287245;9.14186865;2022-10-16T11:37:25;20.87;66.77
216;HTU21D;45701;48.81287245;9.14186865;2022-10-16T11:39:59;20.92;65.16
216;HTU21D;45701;48.81287245;9.14186865;2022-10-16T11:42:33;21.27;63.92
216;HTU21D;45701;48.81287245;9.14186865;2022-10-16T11:45:08;21.61;63.08
216;HTU21D;45701;48.81287245;9.14186865;2022-10-16T11:47:40;21.46;62.23
216;HTU21D;45701;48.81287245;9.14186865;2022-10-16T11:50:17;21.75;62.68
216;HTU21D;45701;48.81287245;9.14186865;2022-10-16T11:52:52;21.72;59.73
216;HTU21D;45701;48.81287245;9.14186865;2022-10-16T11:55:24;21.95;59.15
216;HTU21D;45701;48.81287245;9.14186865;2022-10-16T11:57:59;22.36;57.45
216;HTU21D;45701;48.81287245;9.14186865;2022-10-16T12:00:30;22.46;57.23
216;HTU21D;45701;48.81287245;9.14186865;2022-10-16T12:03:05;22.29;58.38
216;HTU21D;45701;48.81287245;9.14186865;2022-10-16T12:05:54;22.35;57.09
216;HTU21D;45701;48.81287245;9.14186865;2022-10-16T12:08:22;22.50;56.26
216;HTU21D;45701;48.81287245;9.14186865;2022-10-16T12:10:50;22.09;57.16
216;HTU21D;45701;48.81287245;9.14186865;2022-10-16T12:13:32;22.05;59.87
216;HTU21D;45701;48.81287245;9.14186865;2022-10-16T12:16:07;21.85;58.61
216;HTU21D;45701;48.81287245;9.14186865;2022-10-16T12:18:46;21.76;58.61
216;HTU21D;45701;48.81287245;9.14186865;2022-10-16T12:21:15;21.66;59.02
216;HTU21D;45701;48.81287245;9.14186865;2022-10-16T12:23:49;21.67;59.09
216;HTU21D;45701;48.81287245;9.14186865;2022-10-16T12:26:25;21.58;59.16
216;HTU21D;45701;48.81287245;9.14186865;2022-10-16T12:28:53;21.52;60.64
216;HTU21D;45701;48.81287245;9.14186865;2022-10-16T12:31:20;21.68;59.17
216;HTU21D;45701;48.81287245;9.14186865;2022-10-16T12:33:57;21.88;57.73
216;HTU21D;45701;48.81287245;9.14186865;2022-10-16T12:36:29;22.10;59.03
216;HTU21D;45701;48.81287245;9.14186865;2022-10-16T12:38:56;22.32;55.54
216;HTU21D;45701;48.81287245;9.14186865;2022-10-16T12:41:27;22.38;56.71
216;HTU21D;45701;48.81287245;9.14186865;2022-10-16T12:43:55;22.46;59.34
216;HTU21D;45701;48.81287245;9.14186865;2022-10-16T12:46:32;22.31;57.55
216;HTU21D;45701;48.81287245;9.14186865;2022-10-16T12:49:07;22.17;59.44
216;HTU21D;45701;48.81287245;9.14186865;2022-10-16T12:51:44;22.23;60.96
216;HTU21D;45701;48.81287245;9.14186865;2022-10-16T12:54:14;22.52;59.27
216;HTU21D;45701;48.81287245;9.14186865;2022-10-16T12:56:50;23.14;62.15
216;HTU21D;45701;48.81287245;9.14186865;2022-10-16T12:59:29;22.97;57.16
216;HTU21D;45701;48.81287245;9.14186865;2022-10-16T13:02:18;22.65;55.19
216;HTU21D;45701;48.81287245;9.14186865;2022-10-16T13:07:51;22.20;56.68
216;HTU21D;45701;48.81287245;9.14186865;2022-10-16T13:10:26;21.99;58.18
216;HTU21D;45701;48.81287245;9.14186865;2022-10-16T13:13:18;21.81;65.30
216;HTU21D;45701;48.81287245;9.14186865;2022-10-16T13:16:02;21.82;63.85
216;HTU21D;45701;48.81287245;9.14186865;2022-10-16T13:18:40;21.82;62.72
216;HTU21D;45701;48.81287245;9.14186865;2022-10-16T13:21:21;21.70;62.73
216;HTU21D;45701;48.81287245;9.14186865;2022-10-16T13:23:56;21.53;63.95
216;HTU21D;45701;48.81287245;9.14186865;2022-10-16T13:26:34;21.58;65.44
216;HTU21D;45701;48.81287245;9.14186865;2022-10-16T13:29:06;21.52;65.51
216;HTU21D;45701;48.81287245;9.14186865;2022-10-16T13:31:33;21.50;68.31
216;HTU21D;45701;48.81287245;9.14186865;2022-10-16T13:34:03;21.44;66.93
216;HTU21D;45701;48.81287245;9.14186865;2022-10-16T13:36:34;21.35;65.57
216;HTU21D;45701;48.81287245;9.14186865;2022-10-16T13:39:11;21.34;68.30
216;HTU21D;45701;48.81287245;9.14186865;2022-10-16T13:41:38;21.33;68.64
216;HTU21D;45701;48.81287245;9.14186865;2022-10-16T13:44:13;21.25;66.81
216;HTU21D;45701;48.81287245;9.14186865;2022-10-16T13:46:41;21.40;64.38
216;HTU21D;45701;48.81287245;9.14186865;2022-10-16T13:49:12;21.33;63.80
216;HTU21D;45701;48.81287245;9.14186865;2022-10-16T13:51:39;21.37;66.43
216;HTU21D;45701;48.81287245;9.14186865;2022-10-16T13:54:09;21.42;64.27
216;HTU21D;45701;48.81287245;9.14186865;2022-10-16T13:56:36;21.45;64.06
216;HTU21D;45701;48.81287245;9.14186865;2022-10-16T13:59:04;21.46;63.52